sensor_id;sensor_type;location;lat;lon;timestamp;temperature;humidity
66057;DHT22;52842;52.666;5.202;2022-08-19T00:01:58;22.10;76.70
66057;DHT22;52842;52.666;5.202;2022-08-19T00:04:28;22.10;76.80
66057;DHT22;52842;52.666;5.202;2022-08-19T00:06:55;22.10;76.80
66057;DHT22;52842;52.666;5.202;2022-08-19T00:09:26;22.10;76.90
66057;DHT22;52842;52.666;5.202;2022-08-19T00:11:54;22.10;76.90
66057;DHT22;52842;52.666;5.202;2022-08-19T00:14:25;22.10;76.90
66057;DHT22;52842;52.666;5.202;2022-08-19T00:16:53;22.10;76.90
66057;DHT22;52842;52.666;5.202;2022-08-19T00:19:24;22.10;76.90
66057;DHT22;52842;52.666;5.202;2022-08-19T00:21:51;22.10;76.90
66057;DHT22;52842;52.666;5.202;2022-08-19T00:24:23;22.10;76.90
66057;DHT22;52842;52.666;5.202;2022-08-19T00:26:54;22.10;76.90
66057;DHT22;52842;52.666;5.202;2022-08-19T00:29:26;22.10;76.90
66057;DHT22;52842;52.666;5.202;2022-08-19T00:31:57;22.00;76.80
66057;DHT22;52842;52.666;5.202;2022-08-19T00:34:28;22.10;76.90
66057;DHT22;52842;52.666;5.202;2022-08-19T00:36:55;22.00;76.80
66057;DHT22;52842;52.666;5.202;2022-08-19T00:39:24;22.00;76.80
66057;DHT22;52842;52.666;5.202;2022-08-19T00:41:51;22.00;76.80
66057;DHT22;52842;52.666;5.202;2022-08-19T00:44:24;22.00;76.80
66057;DHT22;52842;52.666;5.202;2022-08-19T00:46:59;22.00;76.80
66057;DHT22;52842;52.666;5.202;2022-08-19T00:49:29;22.00;76.80
66057;DHT22;52842;52.666;5.202;2022-08-19T00:52:06;22.00;76.90
66057;DHT22;52842;52.666;5.202;2022-08-19T00:54:36;22.00;76.90
66057;DHT22;52842;52.666;5.202;2022-08-19T00:57:07;22.00;76.90
66057;DHT22;52842;52.666;5.202;2022-08-19T00:59:39;22.00;76.90
66057;DHT22;52842;52.666;5.202;2022-08-19T01:02:12;22.00;77.00
66057;DHT22;52842;52.666;5.202;2022-08-19T01:04:39;22.00;77.00
66057;DHT22;52842;52.666;5.202;2022-08-19T01:07:08;21.90;77.00
66057;DHT22;52842;52.666;5.202;2022-08-19T01:09:35;21.90;77.00
66057;DHT22;52842;52.666;5.202;2022-08-19T01:12:02;21.90;77.00
66057;DHT22;52842;52.666;5.202;2022-08-19T01:17:40;21.90;77.00
66057;DHT22;52842;52.666;5.202;2022-08-19T01:20:11;21.90;77.10
66057;DHT22;52842;52.666;5.202;2022-08-19T01:22:43;21.90;77.10
66057;DHT22;52842;52.666;5.202;2022-08-19T01:25:11;21.90;77.10
66057;DHT22;52842;52.666;5.202;2022-08-19T01:27:41;21.90;77.10
66057;DHT22;52842;52.666;5.202;2022-08-19T01:30:11;21.90;77.10
66057;DHT22;52842;52.666;5.202;2022-08-19T01:32:39;21.90;77.20
66057;DHT22;52842;52.666;5.202;2022-08-19T01:35:08;21.80;77.10
66057;DHT22;52842;52.666;5.202;2022-08-19T01:37:43;21.80;77.10
66057;DHT22;52842;52.666;5.202;2022-08-19T01:40:12;21.80;77.20
66057;DHT22;52842;52.666;5.202;2022-08-19T01:42:39;21.80;77.20
66057;DHT22;52842;52.666;5.202;2022-08-19T01:45:08;21.80;77.20
66057;DHT22;52842;52.666;5.202;2022-08-19T01:47:37;21.80;77.20
66057;DHT22;52842;52.666;5.202;2022-08-19T01:50:07;21.80;77.30
66057;DHT22;52842;52.666;5.202;2022-08-19T01:52:39;21.80;77.30
66057;DHT22;52842;52.666;5.202;2022-08-19T01:55:14;21.80;77.40
66057;DHT22;52842;52.666;5.202;2022-08-19T01:57:55;21.80;77.40
66057;DHT22;52842;52.666;5.202;2022-08-19T02:00:27;21.80;77.50
66057;DHT22;52842;52.666;5.202;2022-08-19T02:03:04;21.80;78.20
66057;DHT22;52842;52.666;5.202;2022-08-19T02:05:36;21.80;77.60
66057;DHT22;52842;52.666;5.202;2022-08-19T02:08:05;21.70;77.60
66057;DHT22;52842;52.666;5.202;2022-08-19T02:10:42;21.70;77.60
66057;DHT22;52842;52.666;5.202;2022-08-19T02:13:14;21.70;77.60
66057;DHT22;52842;52.666;5.202;2022-08-19T02:15:43;21.70;77.60
66057;DHT22;52842;52.666;5.202;2022-08-19T02:18:09;21.70;77.70
66057;DHT22;52842;52.666;5.202;2022-08-19T02:20:38;21.70;77.70
66057;DHT22;52842;52.666;5.202;2022-08-19T02:23:07;21.70;77.80
66057;DHT22;52842;52.666;5.202;2022-08-19T02:25:35;21.70;77.80
66057;DHT22;52842;52.666;5.202;2022-08-19T02:28:06;21.70;77.90
66057;DHT22;52842;52.666;5.202;2022-08-19T02:30:36;21.70;77.90
66057;DHT22;52842;52.666;5.202;2022-08-19T02:33:04;21.70;78.00
66057;DHT22;52842;52.666;5.202;2022-08-19T02:35:32;21.70;78.00
66057;DHT22;52842;52.666;5.202;2022-08-19T02:37:59;21.70;78.00
66057;DHT22;52842;52.666;5.202;2022-08-19T02:40:47;21.60;78.10
66057;DHT22;52842;52.666;5.202;2022-08-19T02:43:17;21.60;78.10
66057;DHT22;52842;52.666;5.202;2022-08-19T02:45:45;21.60;78.10
66057;DHT22;52842;52.666;5.202;2022-08-19T02:48:14;21.60;78.20
66057;DHT22;52842;52.666;5.202;2022-08-19T02:50:44;21.60;78.30
66057;DHT22;52842;52.666;5.202;2022-08-19T02:53:11;21.60;78.30
66057;DHT22;52842;52.666;5.202;2022-08-19T02:55:42;21.60;78.30
66057;DHT22;52842;52.666;5.202;2022-08-19T02:58:09;21.60;78.40
66057;DHT22;52842;52.666;5.202;2022-08-19T03:00:37;21.60;78.50
66057;DHT22;52842;52.666;5.202;2022-08-19T03:03:08;21.60;78.50
66057;DHT22;52842;52.666;5.202;2022-08-19T03:05:36;21.60;78.50
66057;DHT22;52842;52.666;5.202;2022-08-19T03:08:04;21.60;78.60
66057;DHT22;52842;52.666;5.202;2022-08-19T03:10:32;21.60;78.60
66057;DHT22;52842;52.666;5.202;2022-08-19T03:13:02;21.60;78.70
66057;DHT22;52842;52.666;5.202;2022-08-19T03:18:36;21.60;78.80
66057;DHT22;52842;52.666;5.202;2022-08-19T03:21:03;21.50;78.70
66057;DHT22;52842;52.666;5.202;2022-08-19T03:23:34;21.50;78.80
66057;DHT22;52842;52.666;5.202;2022-08-19T03:26:04;21.50;78.80
66057;DHT22;52842;52.666;5.202;2022-08-19T03:28:31;21.50;78.80
66057;DHT22;52842;52.666;5.202;2022-08-19T03:31:03;21.50;78.90
66057;DHT22;52842;52.666;5.202;2022-08-19T03:33:34;21.50;78.90
66057;DHT22;52842;52.666;5.202;2022-08-19T03:36:07;21.50;79.00
66057;DHT22;52842;52.666;5.202;2022-08-19T03:38:39;21.50;79.00
66057;DHT22;52842;52.666;5.202;2022-08-19T03:41:11;21.50;79.10
66057;DHT22;52842;52.666;5.202;2022-08-19T03:43:41;21.50;79.10
66057;DHT22;52842;52.666;5.202;2022-08-19T03:46:09;21.50;79.20
66057;DHT22;52842;52.666;5.202;2022-08-19T03:48:39;21.50;79.20
66057;DHT22;52842;52.666;5.202;2022-08-19T03:51:14;21.50;79.30
66057;DHT22;52842;52.666;5.202;2022-08-19T03:53:43;21.50;79.40
66057;DHT22;52842;52.666;5.202;2022-08-19T03:56:10;21.50;79.40
66057;DHT22;52842;52.666;5.202;2022-08-19T03:58:38;21.50;79.50
66057;DHT22;52842;52.666;5.202;2022-08-19T04:01:08;21.50;80.30
66057;DHT22;52842;52.666;5.202;2022-08-19T04:03:40;21.40;79.60
66057;DHT22;52842;52.666;5.202;2022-08-19T04:06:13;21.40;79.60
66057;DHT22;52842;52.666;5.202;2022-08-19T04:08:45;21.40;79.70
66057;DHT22;52842;52.666;5.202;2022-08-19T04:11:13;21.40;79.80
66057;DHT22;52842;52.666;5.202;2022-08-19T04:13:47;21.40;79.80
66057;DHT22;52842;52.666;5.202;2022-08-19T04:16:28;21.40;79.80
66057;DHT22;52842;52.666;5.202;2022-08-19T04:19:13;21.40;79.80
66057;DHT22;52842;52.666;5.202;2022-08-19T04:21:54;21.40;79.90
66057;DHT22;52842;52.666;5.202;2022-08-19T04:24:39;21.40;79.90
66057;DHT22;52842;52.666;5.202;2022-08-19T04:27:42;21.40;79.90
66057;DHT22;52842;52.666;5.202;2022-08-19T04:30:22;21.40;80.00
66057;DHT22;52842;52.666;5.202;2022-08-19T04:32:49;21.40;80.00
66057;DHT22;52842;52.666;5.202;2022-08-19T04:35:16;21.40;80.00
66057;DHT22;52842;52.666;5.202;2022-08-19T04:37:44;21.40;80.00
66057;DHT22;52842;52.666;5.202;2022-08-19T04:40:14;21.40;80.10
66057;DHT22;52842;52.666;5.202;2022-08-19T04:43:00;21.40;80.10
66057;DHT22;52842;52.666;5.202;2022-08-19T04:45:27;21.40;80.30
66057;DHT22;52842;52.666;5.202;2022-08-19T04:47:55;21.40;80.40
66057;DHT22;52842;52.666;5.202;2022-08-19T04:50:23;21.40;80.40
66057;DHT22;52842;52.666;5.202;2022-08-19T04:52:54;21.40;80.50
66057;DHT22;52842;52.666;5.202;2022-08-19T04:55:23;21.40;80.60
66057;DHT22;52842;52.666;5.202;2022-08-19T04:57:59;21.40;80.60
66057;DHT22;52842;52.666;5.202;2022-08-19T05:00:30;21.40;80.70
66057;DHT22;52842;52.666;5.202;2022-08-19T05:03:00;21.40;80.80
66057;DHT22;52842;52.666;5.202;2022-08-19T05:05:27;21.40;80.90
66057;DHT22;52842;52.666;5.202;2022-08-19T05:07:56;21.40;81.00
66057;DHT22;52842;52.666;5.202;2022-08-19T05:10:25;21.40;81.00
66057;DHT22;52842;52.666;5.202;2022-08-19T05:13:17;21.40;81.10
66057;DHT22;52842;52.666;5.202;2022-08-19T05:19:37;21.40;81.20
66057;DHT22;52842;52.666;5.202;2022-08-19T05:25:40;21.40;81.20
66057;DHT22;52842;52.666;5.202;2022-08-19T05:28:27;21.40;81.30
66057;DHT22;52842;52.666;5.202;2022-08-19T05:30:59;21.40;81.40
66057;DHT22;52842;52.666;5.202;2022-08-19T05:33:39;21.40;81.50
66057;DHT22;52842;52.666;5.202;2022-08-19T05:36:10;21.40;81.40
66057;DHT22;52842;52.666;5.202;2022-08-19T05:38:42;21.40;81.50
66057;DHT22;52842;52.666;5.202;2022-08-19T05:41:15;21.40;81.50
66057;DHT22;52842;52.666;5.202;2022-08-19T05:43:56;21.40;81.50
66057;DHT22;52842;52.666;5.202;2022-08-19T05:46:26;21.40;81.50
66057;DHT22;52842;52.666;5.202;2022-08-19T05:48:58;21.40;81.60
66057;DHT22;52842;52.666;5.202;2022-08-19T05:51:32;21.40;81.70
66057;DHT22;52842;52.666;5.202;2022-08-19T05:54:04;21.40;81.70
66057;DHT22;52842;52.666;5.202;2022-08-19T05:56:43;21.40;81.80
66057;DHT22;52842;52.666;5.202;2022-08-19T05:59:16;21.40;81.80
66057;DHT22;52842;52.666;5.202;2022-08-19T06:01:44;21.40;81.80
66057;DHT22;52842;52.666;5.202;2022-08-19T06:04:18;21.40;81.80
66057;DHT22;52842;52.666;5.202;2022-08-19T06:06:51;21.40;81.80
66057;DHT22;52842;52.666;5.202;2022-08-19T06:09:24;21.40;81.70
66057;DHT22;52842;52.666;5.202;2022-08-19T06:12:02;21.40;81.60
66057;DHT22;52842;52.666;5.202;2022-08-19T06:14:35;21.40;81.50
66057;DHT22;52842;52.666;5.202;2022-08-19T06:17:07;21.40;81.40
66057;DHT22;52842;52.666;5.202;2022-08-19T06:19:38;21.50;81.60
66057;DHT22;52842;52.666;5.202;2022-08-19T06:22:12;21.50;81.60
66057;DHT22;52842;52.666;5.202;2022-08-19T06:24:42;21.50;81.60
66057;DHT22;52842;52.666;5.202;2022-08-19T06:27:16;21.50;81.60
66057;DHT22;52842;52.666;5.202;2022-08-19T06:29:58;21.50;81.60
66057;DHT22;52842;52.666;5.202;2022-08-19T06:32:29;21.50;81.50
66057;DHT22;52842;52.666;5.202;2022-08-19T06:35:00;21.50;81.60
66057;DHT22;52842;52.666;5.202;2022-08-19T06:37:31;21.50;81.70
66057;DHT22;52842;52.666;5.202;2022-08-19T06:39:58;21.50;81.60
66057;DHT22;52842;52.666;5.202;2022-08-19T06:51:03;21.60;81.40
66057;DHT22;52842;52.666;5.202;2022-08-19T06:53:31;21.60;81.30
66057;DHT22;52842;52.666;5.202;2022-08-19T06:55:57;21.60;81.30
66057;DHT22;52842;52.666;5.202;2022-08-19T06:58:27;21.60;81.30
66057;DHT22;52842;52.666;5.202;2022-08-19T07:00:58;21.60;81.30
66057;DHT22;52842;52.666;5.202;2022-08-19T07:03:28;21.70;81.60
66057;DHT22;52842;52.666;5.202;2022-08-19T07:05:56;21.60;81.40
66057;DHT22;52842;52.666;5.202;2022-08-19T07:08:31;21.70;81.60
66057;DHT22;52842;52.666;5.202;2022-08-19T07:11:01;21.70;81.60
66057;DHT22;52842;52.666;5.202;2022-08-19T07:13:28;21.70;81.90
66057;DHT22;52842;52.666;5.202;2022-08-19T07:16:05;21.70;82.00
66057;DHT22;52842;52.666;5.202;2022-08-19T07:18:37;21.70;82.00
66057;DHT22;52842;52.666;5.202;2022-08-19T07:21:12;21.70;82.10
66057;DHT22;52842;52.666;5.202;2022-08-19T07:23:51;21.70;82.20
66057;DHT22;52842;52.666;5.202;2022-08-19T07:26:30;21.70;82.40
66057;DHT22;52842;52.666;5.202;2022-08-19T07:29:01;21.70;82.40
66057;DHT22;52842;52.666;5.202;2022-08-19T07:31:33;21.80;82.30
66057;DHT22;52842;52.666;5.202;2022-08-19T07:34:07;21.80;83.10
66057;DHT22;52842;52.666;5.202;2022-08-19T07:36:40;21.80;82.60
66057;DHT22;52842;52.666;5.202;2022-08-19T07:39:15;21.80;82.50
66057;DHT22;52842;52.666;5.202;2022-08-19T07:41:42;21.80;82.50
66057;DHT22;52842;52.666;5.202;2022-08-19T07:44:13;21.80;82.80
66057;DHT22;52842;52.666;5.202;2022-08-19T07:46:46;21.80;82.80
66057;DHT22;52842;52.666;5.202;2022-08-19T07:49:26;21.80;82.90
66057;DHT22;52842;52.666;5.202;2022-08-19T07:52:07;21.90;83.10
66057;DHT22;52842;52.666;5.202;2022-08-19T07:55:03;21.90;83.20
66057;DHT22;52842;52.666;5.202;2022-08-19T07:57:35;21.90;83.30
66057;DHT22;52842;52.666;5.202;2022-08-19T08:00:07;21.90;83.30
66057;DHT22;52842;52.666;5.202;2022-08-19T08:02:39;21.90;83.50
66057;DHT22;52842;52.666;5.202;2022-08-19T08:05:10;22.00;83.60
66057;DHT22;52842;52.666;5.202;2022-08-19T08:07:57;22.00;83.60
66057;DHT22;52842;52.666;5.202;2022-08-19T08:10:47;22.00;83.50
66057;DHT22;52842;52.666;5.202;2022-08-19T08:13:19;22.00;83.50
66057;DHT22;52842;52.666;5.202;2022-08-19T08:15:59;22.10;83.50
66057;DHT22;52842;52.666;5.202;2022-08-19T08:18:53;22.10;83.50
66057;DHT22;52842;52.666;5.202;2022-08-19T08:21:26;22.10;83.50
66057;DHT22;52842;52.666;5.202;2022-08-19T08:23:57;22.10;83.50
66057;DHT22;52842;52.666;5.202;2022-08-19T08:26:28;22.10;83.30
66057;DHT22;52842;52.666;5.202;2022-08-19T08:28:58;22.10;83.40
66057;DHT22;52842;52.666;5.202;2022-08-19T08:31:24;22.20;83.50
66057;DHT22;52842;52.666;5.202;2022-08-19T08:33:51;22.20;83.50
66057;DHT22;52842;52.666;5.202;2022-08-19T08:36:18;22.20;83.40
66057;DHT22;52842;52.666;5.202;2022-08-19T08:38:45;22.20;83.30
66057;DHT22;52842;52.666;5.202;2022-08-19T08:41:15;22.20;83.30
66057;DHT22;52842;52.666;5.202;2022-08-19T08:43:46;22.20;83.20
66057;DHT22;52842;52.666;5.202;2022-08-19T08:46:15;22.20;83.30
66057;DHT22;52842;52.666;5.202;2022-08-19T08:48:47;22.30;83.30
66057;DHT22;52842;52.666;5.202;2022-08-19T08:51:17;22.30;83.40
66057;DHT22;52842;52.666;5.202;2022-08-19T08:53:45;22.30;83.50
66057;DHT22;52842;52.666;5.202;2022-08-19T08:56:13;22.30;83.60
66057;DHT22;52842;52.666;5.202;2022-08-19T08:58:42;22.30;83.70
66057;DHT22;52842;52.666;5.202;2022-08-19T09:01:14;22.40;83.80
66057;DHT22;52842;52.666;5.202;2022-08-19T09:03:41;22.40;83.90
66057;DHT22;52842;52.666;5.202;2022-08-19T09:06:11;22.40;83.70
66057;DHT22;52842;52.666;5.202;2022-08-19T09:08:40;22.40;83.70
66057;DHT22;52842;52.666;5.202;2022-08-19T09:11:10;22.40;83.70
66057;DHT22;52842;52.666;5.202;2022-08-19T09:13:42;22.50;83.70
66057;DHT22;52842;52.666;5.202;2022-08-19T09:16:11;22.50;83.70
66057;DHT22;52842;52.666;5.202;2022-08-19T09:18:42;22.50;83.70
66057;DHT22;52842;52.666;5.202;2022-08-19T09:21:09;22.50;83.60
66057;DHT22;52842;52.666;5.202;2022-08-19T09:23:36;22.50;83.60
66057;DHT22;52842;52.666;5.202;2022-08-19T09:26:08;22.50;83.50
66057;DHT22;52842;52.666;5.202;2022-08-19T09:28:47;22.50;83.50
66057;DHT22;52842;52.666;5.202;2022-08-19T09:31:20;22.60;83.50
66057;DHT22;52842;52.666;5.202;2022-08-19T09:33:54;22.60;83.40
66057;DHT22;52842;52.666;5.202;2022-08-19T09:36:23;22.60;83.40
66057;DHT22;52842;52.666;5.202;2022-08-19T09:38:50;22.60;83.30
66057;DHT22;52842;52.666;5.202;2022-08-19T09:41:18;22.60;83.30
66057;DHT22;52842;52.666;5.202;2022-08-19T09:43:46;22.60;83.30
66057;DHT22;52842;52.666;5.202;2022-08-19T09:46:13;22.70;83.20
66057;DHT22;52842;52.666;5.202;2022-08-19T09:48:42;22.70;83.10
66057;DHT22;52842;52.666;5.202;2022-08-19T09:51:12;22.70;83.00
66057;DHT22;52842;52.666;5.202;2022-08-19T09:53:42;22.70;83.00
66057;DHT22;52842;52.666;5.202;2022-08-19T09:56:09;22.70;82.90
66057;DHT22;52842;52.666;5.202;2022-08-19T09:58:37;22.80;82.90
66057;DHT22;52842;52.666;5.202;2022-08-19T10:01:04;22.80;82.90
66057;DHT22;52842;52.666;5.202;2022-08-19T10:03:31;22.80;82.80
66057;DHT22;52842;52.666;5.202;2022-08-19T10:06:00;22.80;82.80
66057;DHT22;52842;52.666;5.202;2022-08-19T10:08:29;22.80;82.80
66057;DHT22;52842;52.666;5.202;2022-08-19T10:10:56;22.80;82.70
66057;DHT22;52842;52.666;5.202;2022-08-19T10:13:26;22.90;82.70
66057;DHT22;52842;52.666;5.202;2022-08-19T10:16:06;22.90;82.60
66057;DHT22;52842;52.666;5.202;2022-08-19T10:18:37;22.90;82.40
66057;DHT22;52842;52.666;5.202;2022-08-19T10:21:10;22.90;82.40
66057;DHT22;52842;52.666;5.202;2022-08-19T10:23:44;22.90;82.40
66057;DHT22;52842;52.666;5.202;2022-08-19T10:26:23;22.90;82.30
66057;DHT22;52842;52.666;5.202;2022-08-19T10:29:02;23.00;82.30
66057;DHT22;52842;52.666;5.202;2022-08-19T10:31:35;23.00;82.20
66057;DHT22;52842;52.666;5.202;2022-08-19T10:34:07;23.00;82.30
66057;DHT22;52842;52.666;5.202;2022-08-19T10:36:37;23.00;82.20
66057;DHT22;52842;52.666;5.202;2022-08-19T10:39:11;23.10;82.20
66057;DHT22;52842;52.666;5.202;2022-08-19T10:41:43;23.10;82.20
66057;DHT22;52842;52.666;5.202;2022-08-19T10:44:16;23.10;82.10
66057;DHT22;52842;52.666;5.202;2022-08-19T10:46:54;23.10;82.10
66057;DHT22;52842;52.666;5.202;2022-08-19T10:49:21;23.10;82.10
66057;DHT22;52842;52.666;5.202;2022-08-19T10:51:49;23.10;82.10
66057;DHT22;52842;52.666;5.202;2022-08-19T10:54:34;23.20;82.00
66057;DHT22;52842;52.666;5.202;2022-08-19T10:57:19;23.20;81.90
66057;DHT22;52842;52.666;5.202;2022-08-19T10:59:49;23.20;81.70
66057;DHT22;52842;52.666;5.202;2022-08-19T11:02:16;23.20;81.50
66057;DHT22;52842;52.666;5.202;2022-08-19T11:04:43;23.20;81.30
66057;DHT22;52842;52.666;5.202;2022-08-19T11:07:09;23.20;81.20
66057;DHT22;52842;52.666;5.202;2022-08-19T11:09:40;23.30;81.20
66057;DHT22;52842;52.666;5.202;2022-08-19T11:12:08;23.30;81.00
66057;DHT22;52842;52.666;5.202;2022-08-19T11:14:35;23.30;80.90
66057;DHT22;52842;52.666;5.202;2022-08-19T11:17:02;23.30;80.70
66057;DHT22;52842;52.666;5.202;2022-08-19T11:19:29;23.30;80.80
66057;DHT22;52842;52.666;5.202;2022-08-19T11:21:56;23.30;80.90
66057;DHT22;52842;52.666;5.202;2022-08-19T11:24:26;23.30;80.80
66057;DHT22;52842;52.666;5.202;2022-08-19T11:29:42;23.40;81.10
66057;DHT22;52842;52.666;5.202;2022-08-19T11:32:09;23.40;81.10
66057;DHT22;52842;52.666;5.202;2022-08-19T11:34:38;23.40;81.10
66057;DHT22;52842;52.666;5.202;2022-08-19T11:37:09;23.40;81.00
66057;DHT22;52842;52.666;5.202;2022-08-19T11:39:36;23.40;80.80
66057;DHT22;52842;52.666;5.202;2022-08-19T11:42:14;23.40;80.80
66057;DHT22;52842;52.666;5.202;2022-08-19T11:45:03;23.40;80.60
66057;DHT22;52842;52.666;5.202;2022-08-19T11:47:35;23.50;80.60
66057;DHT22;52842;52.666;5.202;2022-08-19T11:50:10;23.50;80.60
66057;DHT22;52842;52.666;5.202;2022-08-19T11:52:39;23.50;80.50
66057;DHT22;52842;52.666;5.202;2022-08-19T11:55:09;23.50;80.40
66057;DHT22;52842;52.666;5.202;2022-08-19T11:57:48;23.50;80.30
66057;DHT22;52842;52.666;5.202;2022-08-19T12:00:29;23.50;80.30
66057;DHT22;52842;52.666;5.202;2022-08-19T12:03:06;23.50;80.30
66057;DHT22;52842;52.666;5.202;2022-08-19T12:05:54;23.50;80.20
66057;DHT22;52842;52.666;5.202;2022-08-19T12:08:23;23.50;80.20
66057;DHT22;52842;52.666;5.202;2022-08-19T12:11:01;23.50;80.10
66057;DHT22;52842;52.666;5.202;2022-08-19T12:25:51;23.60;80.00
66057;DHT22;52842;52.666;5.202;2022-08-19T12:28:23;23.60;80.00
66057;DHT22;52842;52.666;5.202;2022-08-19T12:30:52;23.60;79.90
66057;DHT22;52842;52.666;5.202;2022-08-19T12:33:20;23.60;79.80
66057;DHT22;52842;52.666;5.202;2022-08-19T12:35:59;23.70;79.90
66057;DHT22;52842;52.666;5.202;2022-08-19T12:38:38;23.70;79.80
66057;DHT22;52842;52.666;5.202;2022-08-19T12:41:11;23.70;79.70
66057;DHT22;52842;52.666;5.202;2022-08-19T12:46:49;23.80;79.40
66057;DHT22;52842;52.666;5.202;2022-08-19T12:49:15;23.80;79.40
66057;DHT22;52842;52.666;5.202;2022-08-19T12:51:42;23.90;79.50
66057;DHT22;52842;52.666;5.202;2022-08-19T12:54:09;23.80;79.40
66057;DHT22;52842;52.666;5.202;2022-08-19T12:56:37;23.80;79.20
66057;DHT22;52842;52.666;5.202;2022-08-19T12:59:04;23.90;79.10
66057;DHT22;52842;52.666;5.202;2022-08-19T13:01:33;23.90;79.00
66057;DHT22;52842;52.666;5.202;2022-08-19T13:04:00;23.90;78.80
66057;DHT22;52842;52.666;5.202;2022-08-19T13:06:26;23.90;78.70
66057;DHT22;52842;52.666;5.202;2022-08-19T13:08:53;23.90;78.60
66057;DHT22;52842;52.666;5.202;2022-08-19T13:11:20;23.90;78.60
66057;DHT22;52842;52.666;5.202;2022-08-19T13:13:51;23.90;78.60
66057;DHT22;52842;52.666;5.202;2022-08-19T13:16:20;23.90;78.60
66057;DHT22;52842;52.666;5.202;2022-08-19T13:18:47;24.00;78.50
66057;DHT22;52842;52.666;5.202;2022-08-19T13:21:14;24.00;78.40
66057;DHT22;52842;52.666;5.202;2022-08-19T13:23:41;24.00;78.30
66057;DHT22;52842;52.666;5.202;2022-08-19T13:26:08;24.00;78.10
66057;DHT22;52842;52.666;5.202;2022-08-19T13:28:35;24.00;78.10
66057;DHT22;52842;52.666;5.202;2022-08-19T13:31:22;24.00;78.10
66057;DHT22;52842;52.666;5.202;2022-08-19T13:34:07;24.00;78.00
66057;DHT22;52842;52.666;5.202;2022-08-19T13:36:34;24.10;78.10
66057;DHT22;52842;52.666;5.202;2022-08-19T13:39:01;24.10;78.00
66057;DHT22;52842;52.666;5.202;2022-08-19T13:41:28;24.10;78.00
66057;DHT22;52842;52.666;5.202;2022-08-19T13:43:56;24.10;78.00
66057;DHT22;52842;52.666;5.202;2022-08-19T13:46:24;24.20;78.00
66057;DHT22;52842;52.666;5.202;2022-08-19T13:48:52;24.20;77.90
66057;DHT22;52842;52.666;5.202;2022-08-19T13:51:19;24.20;77.90
66057;DHT22;52842;52.666;5.202;2022-08-19T13:53:45;24.20;78.50
66057;DHT22;52842;52.666;5.202;2022-08-19T13:56:13;24.20;77.80
66057;DHT22;52842;52.666;5.202;2022-08-19T13:58:40;24.20;77.50
66057;DHT22;52842;52.666;5.202;2022-08-19T14:01:07;24.20;77.20
66057;DHT22;52842;52.666;5.202;2022-08-19T14:03:36;24.20;76.90
66057;DHT22;52842;52.666;5.202;2022-08-19T14:06:02;24.20;76.80
66057;DHT22;52842;52.666;5.202;2022-08-19T14:08:29;24.20;76.70
66057;DHT22;52842;52.666;5.202;2022-08-19T14:10:57;24.20;76.70
66057;DHT22;52842;52.666;5.202;2022-08-19T14:13:24;24.20;76.70
66057;DHT22;52842;52.666;5.202;2022-08-19T14:15:51;24.20;76.70
66057;DHT22;52842;52.666;5.202;2022-08-19T14:18:18;24.20;76.60
66057;DHT22;52842;52.666;5.202;2022-08-19T14:20:46;24.20;76.60
66057;DHT22;52842;52.666;5.202;2022-08-19T14:23:13;24.20;76.60
66057;DHT22;52842;52.666;5.202;2022-08-19T14:25:39;24.30;76.50
66057;DHT22;52842;52.666;5.202;2022-08-19T14:28:06;24.30;76.40
66057;DHT22;52842;52.666;5.202;2022-08-19T14:30:34;24.30;76.30
66057;DHT22;52842;52.666;5.202;2022-08-19T14:33:03;24.30;76.30
66057;DHT22;52842;52.666;5.202;2022-08-19T14:35:31;24.30;76.20
66057;DHT22;52842;52.666;5.202;2022-08-19T14:38:01;24.30;76.00
66057;DHT22;52842;52.666;5.202;2022-08-19T14:40:28;24.30;75.90
66057;DHT22;52842;52.666;5.202;2022-08-19T14:42:56;24.20;75.70
66057;DHT22;52842;52.666;5.202;2022-08-19T14:45:24;24.30;75.70
66057;DHT22;52842;52.666;5.202;2022-08-19T14:47:51;24.30;75.70
66057;DHT22;52842;52.666;5.202;2022-08-19T14:50:18;24.30;75.60
66057;DHT22;52842;52.666;5.202;2022-08-19T14:52:45;24.30;75.50
66057;DHT22;52842;52.666;5.202;2022-08-19T14:55:14;24.30;75.40
66057;DHT22;52842;52.666;5.202;2022-08-19T14:57:41;24.30;75.40
66057;DHT22;52842;52.666;5.202;2022-08-19T15:00:09;24.20;75.30
66057;DHT22;52842;52.666;5.202;2022-08-19T15:02:38;24.30;75.30
66057;DHT22;52842;52.666;5.202;2022-08-19T15:05:04;24.30;75.30
66057;DHT22;52842;52.666;5.202;2022-08-19T15:07:31;24.30;75.20
66057;DHT22;52842;52.666;5.202;2022-08-19T15:09:58;24.30;75.20
66057;DHT22;52842;52.666;5.202;2022-08-19T15:12:26;24.30;75.20
66057;DHT22;52842;52.666;5.202;2022-08-19T15:14:53;24.30;75.20
66057;DHT22;52842;52.666;5.202;2022-08-19T15:17:20;24.30;75.10
66057;DHT22;52842;52.666;5.202;2022-08-19T15:19:48;24.30;75.10
66057;DHT22;52842;52.666;5.202;2022-08-19T15:22:15;24.30;75.00
66057;DHT22;52842;52.666;5.202;2022-08-19T15:24:42;24.30;75.00
66057;DHT22;52842;52.666;5.202;2022-08-19T15:27:11;24.30;75.00
66057;DHT22;52842;52.666;5.202;2022-08-19T15:29:39;24.30;74.90
66057;DHT22;52842;52.666;5.202;2022-08-19T15:32:06;24.30;75.00
66057;DHT22;52842;52.666;5.202;2022-08-19T15:34:33;24.30;74.90
66057;DHT22;52842;52.666;5.202;2022-08-19T15:37:00;24.30;74.90
66057;DHT22;52842;52.666;5.202;2022-08-19T15:39:26;24.30;74.90
66057;DHT22;52842;52.666;5.202;2022-08-19T15:41:53;24.30;74.80
66057;DHT22;52842;52.666;5.202;2022-08-19T15:44:20;24.30;74.80
66057;DHT22;52842;52.666;5.202;2022-08-19T15:46:48;24.30;74.80
66057;DHT22;52842;52.666;5.202;2022-08-19T15:49:15;24.20;74.80
66057;DHT22;52842;52.666;5.202;2022-08-19T15:51:43;24.30;74.90
66057;DHT22;52842;52.666;5.202;2022-08-19T15:54:11;24.30;75.00
66057;DHT22;52842;52.666;5.202;2022-08-19T15:56:38;24.30;75.00
66057;DHT22;52842;52.666;5.202;2022-08-19T15:59:22;24.30;75.00
66057;DHT22;52842;52.666;5.202;2022-08-19T16:02:07;24.30;75.00
66057;DHT22;52842;52.666;5.202;2022-08-19T16:04:51;24.30;75.00
66057;DHT22;52842;52.666;5.202;2022-08-19T16:07:35;24.30;75.00
66057;DHT22;52842;52.666;5.202;2022-08-19T16:10:02;24.20;74.90
66057;DHT22;52842;52.666;5.202;2022-08-19T16:12:29;24.30;75.00
66057;DHT22;52842;52.666;5.202;2022-08-19T16:14:56;24.30;75.00
66057;DHT22;52842;52.666;5.202;2022-08-19T16:17:25;24.30;75.00
66057;DHT22;52842;52.666;5.202;2022-08-19T16:19:51;24.30;75.10
66057;DHT22;52842;52.666;5.202;2022-08-19T16:22:18;24.30;75.10
66057;DHT22;52842;52.666;5.202;2022-08-19T16:24:45;24.20;75.10
66057;DHT22;52842;52.666;5.202;2022-08-19T16:27:11;24.20;75.20
66057;DHT22;52842;52.666;5.202;2022-08-19T16:29:41;24.30;75.30
66057;DHT22;52842;52.666;5.202;2022-08-19T16:32:08;24.20;75.30
66057;DHT22;52842;52.666;5.202;2022-08-19T16:34:38;24.20;75.30